sensor_id;sensor_type;location;lat;lon;timestamp;pressure;altitude;pressure_sealevel;temperature;humidity
41222;BME280;26952;42.884;23.918;2022-11-10T00:02:12;96466.97;;;7.62;100.00
41222;BME280;26952;42.884;23.918;2022-11-10T00:04:38;96451.72;;;7.47;100.00
41222;BME280;26952;42.884;23.918;2022-11-10T00:07:03;96436.06;;;7.45;100.00
41222;BME280;26952;42.884;23.918;2022-11-10T00:09:29;96417.91;;;7.33;100.00
41222;BME280;26952;42.884;23.918;2022-11-10T00:11:54;96443.25;;;7.34;100.00
41222;BME280;26952;42.884;23.918;2022-11-10T00:14:19;96428.84;;;7.19;100.00
41222;BME280;26952;42.884;23.918;2022-11-10T00:17:03;96458.50;;;7.40;100.00
41222;BME280;26952;42.884;23.918;2022-11-10T00:19:34;96435.66;;;7.31;100.00
41222;BME280;26952;42.884;23.918;2022-11-10T00:22:01;96453.38;;;7.38;100.00
41222;BME280;26952;42.884;23.918;2022-11-10T00:24:27;96453.25;;;7.40;100.00
41222;BME280;26952;42.884;23.918;2022-11-10T00:26:54;96457.28;;;7.53;100.00
41222;BME280;26952;42.884;23.918;2022-11-10T00:29:20;96431.47;;;7.28;100.00
41222;BME280;26952;42.884;23.918;2022-11-10T00:31:46;96443.81;;;7.37;100.00
41222;BME280;26952;42.884;23.918;2022-11-10T00:34:14;96439.66;;;7.35;100.00
41222;BME280;26952;42.884;23.918;2022-11-10T00:36:39;96432.44;;;7.37;100.00
41222;BME280;26952;42.884;23.918;2022-11-10T00:39:05;96421.50;;;7.32;100.00
41222;BME280;26952;42.884;23.918;2022-11-10T00:41:30;96425.81;;;7.42;100.00
41222;BME280;26952;42.884;23.918;2022-11-10T00:43:56;96433.56;;;7.44;100.00
41222;BME280;26952;42.884;23.918;2022-11-10T00:46:21;96447.69;;;7.52;100.00
41222;BME280;26952;42.884;23.918;2022-11-10T00:48:47;96371.22;;;7.06;100.00
41222;BME280;26952;42.884;23.918;2022-11-10T00:51:21;96409.19;;;7.32;100.00
41222;BME280;26952;42.884;23.918;2022-11-10T00:53:47;96412.78;;;7.41;100.00
41222;BME280;26952;42.884;23.918;2022-11-10T00:56:13;96433.28;;;7.56;100.00
41222;BME280;26952;42.884;23.918;2022-11-10T00:58:38;96408.88;;;7.35;100.00
41222;BME280;26952;42.884;23.918;2022-11-10T01:01:04;96423.19;;;7.42;100.00
41222;BME280;26952;42.884;23.918;2022-11-10T01:03:30;96425.25;;;7.39;100.00
41222;BME280;26952;42.884;23.918;2022-11-10T01:05:56;96400.84;;;7.18;100.00
41222;BME280;26952;42.884;23.918;2022-11-10T01:08:22;96409.19;;;7.23;100.00
41222;BME280;26952;42.884;23.918;2022-11-10T01:10:47;96416.66;;;7.27;100.00
41222;BME280;26952;42.884;23.918;2022-11-10T01:13:13;96419.56;;;7.24;100.00
41222;BME280;26952;42.884;23.918;2022-11-10T01:15:39;96426.91;;;7.21;100.00
41222;BME280;26952;42.884;23.918;2022-11-10T01:18:05;96419.44;;;7.16;100.00
41222;BME280;26952;42.884;23.918;2022-11-10T01:20:34;96392.53;;;6.93;100.00
41222;BME280;26952;42.884;23.918;2022-11-10T01:23:00;96413.31;;;6.96;100.00
41222;BME280;26952;42.884;23.918;2022-11-10T01:25:26;96415.53;;;6.91;100.00
41222;BME280;26952;42.884;23.918;2022-11-10T01:27:52;96427.47;;;7.05;100.00
41222;BME280;26952;42.884;23.918;2022-11-10T01:30:18;96417.75;;;7.05;100.00
41222;BME280;26952;42.884;23.918;2022-11-10T01:32:44;96388.06;;;6.84;100.00
41222;BME280;26952;42.884;23.918;2022-11-10T01:35:10;96418.56;;;6.96;100.00
41222;BME280;26952;42.884;23.918;2022-11-10T01:37:35;96374.50;;;6.79;100.00
41222;BME280;26952;42.884;23.918;2022-11-10T01:40:03;96418.88;;;7.13;100.00
41222;BME280;26952;42.884;23.918;2022-11-10T01:42:45;96431.47;;;7.09;100.00
41222;BME280;26952;42.884;23.918;2022-11-10T01:45:44;96427.47;;;7.15;100.00
41222;BME280;26952;42.884;23.918;2022-11-10T01:48:14;96425.91;;;7.02;100.00
41222;BME280;26952;42.884;23.918;2022-11-10T01:50:41;96413.88;;;7.00;100.00
41222;BME280;26952;42.884;23.918;2022-11-10T01:53:11;96423.84;;;7.16;100.00
41222;BME280;26952;42.884;23.918;2022-11-10T01:55:41;96406.69;;;7.12;100.00
41222;BME280;26952;42.884;23.918;2022-11-10T01:58:08;96365.38;;;6.83;100.00
41222;BME280;26952;42.884;23.918;2022-11-10T02:00:34;96395.97;;;7.03;100.00
41222;BME280;26952;42.884;23.918;2022-11-10T02:05:48;96428.03;;;7.18;100.00
41222;BME280;26952;42.884;23.918;2022-11-10T02:08:14;96412.19;;;7.08;100.00
41222;BME280;26952;42.884;23.918;2022-11-10T02:10:40;96426.63;;;7.04;100.00
41222;BME280;26952;42.884;23.918;2022-11-10T02:13:06;96423.13;;;6.94;100.00
41222;BME280;26952;42.884;23.918;2022-11-10T02:15:31;96416.59;;;6.79;100.00
41222;BME280;26952;42.884;23.918;2022-11-10T02:17:57;96366.56;;;6.41;100.00
41222;BME280;26952;42.884;23.918;2022-11-10T02:20:22;96416.00;;;6.66;100.00
41222;BME280;26952;42.884;23.918;2022-11-10T02:22:48;96392.44;;;6.55;100.00
41222;BME280;26952;42.884;23.918;2022-11-10T02:25:17;96423.94;;;6.76;100.00
41222;BME280;26952;42.884;23.918;2022-11-10T02:27:43;96412.16;;;6.70;100.00
41222;BME280;26952;42.884;23.918;2022-11-10T02:30:09;96417.69;;;6.67;100.00
41222;BME280;26952;42.884;23.918;2022-11-10T02:32:35;96427.38;;;6.76;100.00
41222;BME280;26952;42.884;23.918;2022-11-10T02:35:00;96412.44;;;6.67;100.00
41222;BME280;26952;42.884;23.918;2022-11-10T02:37:26;96412.94;;;6.61;100.00
41222;BME280;26952;42.884;23.918;2022-11-10T02:39:51;96420.16;;;6.59;100.00
41222;BME280;26952;42.884;23.918;2022-11-10T02:42:16;96369.94;;;6.23;100.00
41222;BME280;26952;42.884;23.918;2022-11-10T02:44:42;96404.31;;;6.40;100.00
41222;BME280;26952;42.884;23.918;2022-11-10T02:47:07;96416.97;;;6.56;100.00
41222;BME280;26952;42.884;23.918;2022-11-10T02:49:33;96416.25;;;6.54;100.00
41222;BME280;26952;42.884;23.918;2022-11-10T02:51:58;96420.69;;;6.53;100.00
41222;BME280;26952;42.884;23.918;2022-11-10T02:54:24;96434.69;;;6.63;100.00
41222;BME280;26952;42.884;23.918;2022-11-10T02:56:49;96416.81;;;6.57;100.00
41222;BME280;26952;42.884;23.918;2022-11-10T02:59:15;96444.31;;;6.83;100.00
41222;BME280;26952;42.884;23.918;2022-11-10T03:01:40;96406.03;;;6.60;100.00
41222;BME280;26952;42.884;23.918;2022-11-10T03:04:06;96404.38;;;6.59;100.00
41222;BME280;26952;42.884;23.918;2022-11-10T03:06:32;96431.78;;;6.66;100.00
41222;BME280;26952;42.884;23.918;2022-11-10T03:08:58;96429.97;;;6.57;100.00
41222;BME280;26952;42.884;23.918;2022-11-10T03:11:23;96452.59;;;6.69;100.00
41222;BME280;26952;42.884;23.918;2022-11-10T03:13:49;96437.00;;;6.47;100.00
41222;BME280;26952;42.884;23.918;2022-11-10T03:16:14;96422.25;;;6.26;100.00
41222;BME280;26952;42.884;23.918;2022-11-10T03:18:40;96456.41;;;6.56;100.00
41222;BME280;26952;42.884;23.918;2022-11-10T03:21:05;96437.53;;;6.41;100.00
41222;BME280;26952;42.884;23.918;2022-11-10T03:23:32;96433.94;;;6.42;100.00
41222;BME280;26952;42.884;23.918;2022-11-10T03:25:57;96439.63;;;6.47;100.00
41222;BME280;26952;42.884;23.918;2022-11-10T03:28:22;96421.50;;;6.44;100.00
41222;BME280;26952;42.884;23.918;2022-11-10T03:30:48;96435.84;;;6.40;100.00
41222;BME280;26952;42.884;23.918;2022-11-10T03:33:14;96448.94;;;6.51;100.00
41222;BME280;26952;42.884;23.918;2022-11-10T03:35:39;96436.69;;;6.41;100.00
41222;BME280;26952;42.884;23.918;2022-11-10T03:38:05;96456.44;;;6.65;100.00
41222;BME280;26952;42.884;23.918;2022-11-10T03:40:30;96447.41;;;6.58;100.00
41222;BME280;26952;42.884;23.918;2022-11-10T03:42:55;96451.75;;;6.69;100.00
41222;BME280;26952;42.884;23.918;2022-11-10T03:45:21;96441.47;;;6.56;100.00
41222;BME280;26952;42.884;23.918;2022-11-10T03:47:48;96450.47;;;6.63;100.00
41222;BME280;26952;42.884;23.918;2022-11-10T03:50:14;96447.13;;;6.61;100.00
41222;BME280;26952;42.884;23.918;2022-11-10T03:52:41;96455.31;;;6.58;100.00
41222;BME280;26952;42.884;23.918;2022-11-10T03:55:10;96461.97;;;6.62;100.00
41222;BME280;26952;42.884;23.918;2022-11-10T03:57:35;96439.47;;;6.39;100.00
41222;BME280;26952;42.884;23.918;2022-11-10T04:00:00;96441.38;;;6.37;100.00
41222;BME280;26952;42.884;23.918;2022-11-10T04:02:26;96459.94;;;6.45;100.00
41222;BME280;26952;42.884;23.918;2022-11-10T04:04:51;96430.03;;;6.27;100.00
41222;BME280;26952;42.884;23.918;2022-11-10T04:07:35;96456.78;;;6.42;100.00
41222;BME280;26952;42.884;23.918;2022-11-10T04:10:19;96450.50;;;6.33;100.00
41222;BME280;26952;42.884;23.918;2022-11-10T04:12:44;96460.50;;;6.39;100.00
41222;BME280;26952;42.884;23.918;2022-11-10T04:15:28;96457.88;;;6.39;100.00
41222;BME280;26952;42.884;23.918;2022-11-10T04:18:06;96451.34;;;6.34;100.00
41222;BME280;26952;42.884;23.918;2022-11-10T04:20:55;96403.84;;;5.96;100.00
41222;BME280;26952;42.884;23.918;2022-11-10T04:23:22;96479.88;;;6.38;100.00
41222;BME280;26952;42.884;23.918;2022-11-10T04:25:52;96456.81;;;6.21;100.00
41222;BME280;26952;42.884;23.918;2022-11-10T04:28:36;96487.09;;;6.46;100.00
41222;BME280;26952;42.884;23.918;2022-11-10T04:31:02;96490.66;;;6.35;100.00
41222;BME280;26952;42.884;23.918;2022-11-10T04:33:27;96471.25;;;6.27;100.00
41222;BME280;26952;42.884;23.918;2022-11-10T04:35:53;96478.00;;;6.29;100.00
41222;BME280;26952;42.884;23.918;2022-11-10T04:38:18;96450.94;;;6.08;100.00
41222;BME280;26952;42.884;23.918;2022-11-10T04:40:44;96498.41;;;6.37;100.00
41222;BME280;26952;42.884;23.918;2022-11-10T04:43:09;96491.28;;;6.28;100.00
41222;BME280;26952;42.884;23.918;2022-11-10T04:45:34;96496.69;;;6.26;100.00
41222;BME280;26952;42.884;23.918;2022-11-10T04:48:00;96418.38;;;5.79;100.00
41222;BME280;26952;42.884;23.918;2022-11-10T04:50:25;96489.84;;;6.14;100.00
41222;BME280;26952;42.884;23.918;2022-11-10T04:52:50;96491.78;;;6.12;100.00
41222;BME280;26952;42.884;23.918;2022-11-10T04:55:16;96484.72;;;6.13;100.00
41222;BME280;26952;42.884;23.918;2022-11-10T04:57:42;96501.09;;;6.26;100.00
41222;BME280;26952;42.884;23.918;2022-11-10T05:00:07;96505.00;;;6.31;100.00
41222;BME280;26952;42.884;23.918;2022-11-10T05:02:34;96471.16;;;6.08;100.00
41222;BME280;26952;42.884;23.918;2022-11-10T05:05:00;96481.97;;;6.14;100.00
41222;BME280;26952;42.884;23.918;2022-11-10T05:07:27;96309.78;;;5.09;100.00
41222;BME280;26952;42.884;23.918;2022-11-10T05:09:53;96498.88;;;6.21;100.00
41222;BME280;26952;42.884;23.918;2022-11-10T05:12:19;96497.47;;;6.17;100.00
41222;BME280;26952;42.884;23.918;2022-11-10T05:14:44;96476.91;;;6.02;100.00
41222;BME280;26952;42.884;23.918;2022-11-10T05:17:09;96479.84;;;6.08;100.00
41222;BME280;26952;42.884;23.918;2022-11-10T05:19:35;96501.66;;;6.29;100.00
41222;BME280;26952;42.884;23.918;2022-11-10T05:22:00;96502.50;;;6.30;100.00
41222;BME280;26952;42.884;23.918;2022-11-10T05:24:26;96510.53;;;6.28;100.00
41222;BME280;26952;42.884;23.918;2022-11-10T05:26:51;96487.53;;;6.21;100.00
41222;BME280;26952;42.884;23.918;2022-11-10T05:29:16;96503.84;;;6.24;100.00
41222;BME280;26952;42.884;23.918;2022-11-10T05:31:42;96512.91;;;6.31;100.00
41222;BME280;26952;42.884;23.918;2022-11-10T05:34:07;96510.31;;;6.41;100.00
41222;BME280;26952;42.884;23.918;2022-11-10T05:36:32;96511.88;;;6.43;100.00
41222;BME280;26952;42.884;23.918;2022-11-10T05:38:58;96495.38;;;6.41;100.00
41222;BME280;26952;42.884;23.918;2022-11-10T05:41:23;96507.09;;;6.58;100.00
41222;BME280;26952;42.884;23.918;2022-11-10T05:43:48;96491.84;;;6.61;100.00
41222;BME280;26952;42.884;23.918;2022-11-10T05:46:14;96495.91;;;6.65;100.00
41222;BME280;26952;42.884;23.918;2022-11-10T05:48:39;96524.63;;;6.87;100.00
41222;BME280;26952;42.884;23.918;2022-11-10T05:51:05;96485.81;;;6.70;100.00
41222;BME280;26952;42.884;23.918;2022-11-10T05:53:30;96506.91;;;6.89;100.00
41222;BME280;26952;42.884;23.918;2022-11-10T05:55:56;96509.53;;;6.89;100.00
41222;BME280;26952;42.884;23.918;2022-11-10T05:58:21;96511.69;;;7.05;100.00
41222;BME280;26952;42.884;23.918;2022-11-10T06:00:46;96509.84;;;7.05;100.00
41222;BME280;26952;42.884;23.918;2022-11-10T06:03:17;96510.81;;;6.95;100.00
41222;BME280;26952;42.884;23.918;2022-11-10T06:05:43;96529.66;;;6.90;100.00
41222;BME280;26952;42.884;23.918;2022-11-10T06:08:08;96529.38;;;6.93;100.00
41222;BME280;26952;42.884;23.918;2022-11-10T06:10:35;96465.81;;;6.58;100.00
41222;BME280;26952;42.884;23.918;2022-11-10T06:13:01;96512.97;;;6.71;100.00
41222;BME280;26952;42.884;23.918;2022-11-10T06:15:27;96525.72;;;6.75;100.00
41222;BME280;26952;42.884;23.918;2022-11-10T06:17:53;96520.88;;;6.80;100.00
41222;BME280;26952;42.884;23.918;2022-11-10T06:20:19;96542.53;;;6.93;100.00
41222;BME280;26952;42.884;23.918;2022-11-10T06:25:24;96530.31;;;6.92;100.00
41222;BME280;26952;42.884;23.918;2022-11-10T06:27:49;96517.16;;;6.92;100.00
41222;BME280;26952;42.884;23.918;2022-11-10T06:30:15;96479.72;;;6.79;100.00
41222;BME280;26952;42.884;23.918;2022-11-10T06:32:42;96552.72;;;7.27;100.00
41222;BME280;26952;42.884;23.918;2022-11-10T06:35:09;96559.69;;;7.37;100.00
41222;BME280;26952;42.884;23.918;2022-11-10T06:37:35;96546.69;;;7.45;100.00
41222;BME280;26952;42.884;23.918;2022-11-10T06:40:05;96552.50;;;7.49;100.00
41222;BME280;26952;42.884;23.918;2022-11-10T06:42:30;96547.25;;;7.49;100.00
41222;BME280;26952;42.884;23.918;2022-11-10T06:44:56;96558.34;;;7.62;100.00
41222;BME280;26952;42.884;23.918;2022-11-10T06:47:21;96565.84;;;7.57;100.00
41222;BME280;26952;42.884;23.918;2022-11-10T06:49:47;96576.66;;;7.63;100.00
41222;BME280;26952;42.884;23.918;2022-11-10T06:52:12;96573.59;;;7.68;100.00
41222;BME280;26952;42.884;23.918;2022-11-10T06:54:37;96558.88;;;7.65;100.00
41222;BME280;26952;42.884;23.918;2022-11-10T06:57:03;96565.56;;;7.69;100.00
41222;BME280;26952;42.884;23.918;2022-11-10T06:59:28;96554.31;;;7.77;100.00
41222;BME280;26952;42.884;23.918;2022-11-10T07:01:54;96566.69;;;7.95;100.00
41222;BME280;26952;42.884;23.918;2022-11-10T07:04:19;96580.56;;;8.07;100.00
41222;BME280;26952;42.884;23.918;2022-11-10T07:06:45;96574.16;;;8.09;100.00
41222;BME280;26952;42.884;23.918;2022-11-10T07:09:12;96574.44;;;7.97;100.00
41222;BME280;26952;42.884;23.918;2022-11-10T07:11:37;96571.66;;;8.08;100.00
41222;BME280;26952;42.884;23.918;2022-11-10T07:14:03;96569.31;;;8.14;100.00
41222;BME280;26952;42.884;23.918;2022-11-10T07:16:28;96581.41;;;8.17;100.00
41222;BME280;26952;42.884;23.918;2022-11-10T07:18:53;96567.09;;;8.10;100.00
41222;BME280;26952;42.884;23.918;2022-11-10T07:21:19;96584.47;;;8.31;100.00
41222;BME280;26952;42.884;23.918;2022-11-10T07:23:44;96560.16;;;8.18;100.00
41222;BME280;26952;42.884;23.918;2022-11-10T07:26:11;96560.31;;;8.17;100.00
41222;BME280;26952;42.884;23.918;2022-11-10T07:28:36;96568.38;;;8.25;100.00
41222;BME280;26952;42.884;23.918;2022-11-10T07:31:02;96548.63;;;8.29;100.00
41222;BME280;26952;42.884;23.918;2022-11-10T07:33:27;96561.50;;;8.41;100.00
41222;BME280;26952;42.884;23.918;2022-11-10T07:35:57;96590.91;;;8.66;100.00
41222;BME280;26952;42.884;23.918;2022-11-10T07:38:23;96578.25;;;8.69;100.00
41222;BME280;26952;42.884;23.918;2022-11-10T07:40:52;96583.75;;;8.85;100.00
41222;BME280;26952;42.884;23.918;2022-11-10T07:43:22;96559.75;;;8.88;100.00
41222;BME280;26952;42.884;23.918;2022-11-10T07:45:52;96573.44;;;9.01;100.00
41222;BME280;26952;42.884;23.918;2022-11-10T07:48:18;96579.34;;;9.22;100.00
41222;BME280;26952;42.884;23.918;2022-11-10T07:50:44;96586.19;;;9.60;100.00
41222;BME280;26952;42.884;23.918;2022-11-10T07:53:17;96567.44;;;9.80;100.00
41222;BME280;26952;42.884;23.918;2022-11-10T07:55:46;96582.72;;;10.22;100.00
41222;BME280;26952;42.884;23.918;2022-11-10T07:58:14;96587.44;;;10.53;100.00
41222;BME280;26952;42.884;23.918;2022-11-10T08:00:40;96563.88;;;10.68;100.00
41222;BME280;26952;42.884;23.918;2022-11-10T08:03:10;96582.47;;;11.01;100.00
41222;BME280;26952;42.884;23.918;2022-11-10T08:05:36;96563.19;;;11.25;100.00
41222;BME280;26952;42.884;23.918;2022-11-10T08:08:03;96583.22;;;11.61;100.00
41222;BME280;26952;42.884;23.918;2022-11-10T08:10:29;96588.44;;;11.79;100.00
41222;BME280;26952;42.884;23.918;2022-11-10T08:12:57;96572.38;;;11.88;100.00
41222;BME280;26952;42.884;23.918;2022-11-10T08:15:24;96575.72;;;12.06;100.00
41222;BME280;26952;42.884;23.918;2022-11-10T08:17:50;96559.97;;;12.13;100.00
41222;BME280;26952;42.884;23.918;2022-11-10T08:20:16;96528.63;;;12.00;100.00
41222;BME280;26952;42.884;23.918;2022-11-10T08:22:42;96579.06;;;12.56;100.00
41222;BME280;26952;42.884;23.918;2022-11-10T08:25:08;96525.00;;;12.41;98.01
41222;BME280;26952;42.884;23.918;2022-11-10T08:27:34;96575.22;;;12.91;94.68
41222;BME280;26952;42.884;23.918;2022-11-10T08:29:59;96557.13;;;13.03;96.06
41222;BME280;26952;42.884;23.918;2022-11-10T08:32:24;96572.81;;;13.28;92.30
41222;BME280;26952;42.884;23.918;2022-11-10T08:34:50;96575.03;;;13.55;89.40
41222;BME280;26952;42.884;23.918;2022-11-10T08:37:16;96574.28;;;13.47;87.15
41222;BME280;26952;42.884;23.918;2022-11-10T08:39:41;96528.13;;;13.32;88.39
41222;BME280;26952;42.884;23.918;2022-11-10T08:42:07;96585.06;;;13.84;91.52
41222;BME280;26952;42.884;23.918;2022-11-10T08:44:32;96563.38;;;13.95;89.98
41222;BME280;26952;42.884;23.918;2022-11-10T08:46:57;96581.25;;;14.09;87.73
41222;BME280;26952;42.884;23.918;2022-11-10T08:49:23;96594.78;;;14.30;80.94
41222;BME280;26952;42.884;23.918;2022-11-10T08:51:48;96589.81;;;14.27;75.86
41222;BME280;26952;42.884;23.918;2022-11-10T08:54:14;96572.41;;;14.39;78.68
41222;BME280;26952;42.884;23.918;2022-11-10T08:56:39;96600.06;;;14.75;80.83
41222;BME280;26952;42.884;23.918;2022-11-10T08:59:04;96595.91;;;14.95;73.75
41222;BME280;26952;42.884;23.918;2022-11-10T09:01:30;96602.00;;;15.04;73.17
41222;BME280;26952;42.884;23.918;2022-11-10T09:03:55;96596.03;;;15.31;75.38
41222;BME280;26952;42.884;23.918;2022-11-10T09:06:21;96578.63;;;15.06;71.91
41222;BME280;26952;42.884;23.918;2022-11-10T09:08:46;96581.66;;;15.17;72.40
41222;BME280;26952;42.884;23.918;2022-11-10T09:11:11;96591.13;;;15.43;75.21
41222;BME280;26952;42.884;23.918;2022-11-10T09:13:37;96599.94;;;15.72;78.38
41222;BME280;26952;42.884;23.918;2022-11-10T09:16:03;96590.59;;;15.83;67.72
41222;BME280;26952;42.884;23.918;2022-11-10T09:18:29;96566.47;;;15.91;66.40
41222;BME280;26952;42.884;23.918;2022-11-10T09:20:55;96578.28;;;16.17;67.83
41222;BME280;26952;42.884;23.918;2022-11-10T09:23:20;96583.75;;;16.45;71.02
41222;BME280;26952;42.884;23.918;2022-11-10T09:25:51;96576.25;;;16.55;64.93
41222;BME280;26952;42.884;23.918;2022-11-10T09:28:17;96552.78;;;16.57;63.87
41222;BME280;26952;42.884;23.918;2022-11-10T09:30:50;96561.97;;;16.97;64.56
41222;BME280;26952;42.884;23.918;2022-11-10T09:33:16;96566.06;;;17.20;63.04
41222;BME280;26952;42.884;23.918;2022-11-10T09:35:42;96555.38;;;17.27;61.07
41222;BME280;26952;42.884;23.918;2022-11-10T09:38:08;96569.66;;;17.34;60.62
41222;BME280;26952;42.884;23.918;2022-11-10T09:43:27;96526.59;;;17.29;65.03
41222;BME280;26952;42.884;23.918;2022-11-10T09:45:59;96555.28;;;17.41;61.93
41222;BME280;26952;42.884;23.918;2022-11-10T09:48:33;96563.50;;;17.40;58.55
41222;BME280;26952;42.884;23.918;2022-11-10T09:53:36;96521.28;;;17.35;63.25
41222;BME280;26952;42.884;23.918;2022-11-10T09:56:03;96566.03;;;17.88;61.91
41222;BME280;26952;42.884;23.918;2022-11-10T09:58:40;96537.56;;;17.74;57.85
41222;BME280;26952;42.884;23.918;2022-11-10T10:01:29;96566.03;;;17.88;56.78
41222;BME280;26952;42.884;23.918;2022-11-10T10:06:57;96558.63;;;17.90;53.50
41222;BME280;26952;42.884;23.918;2022-11-10T10:12:20;96543.84;;;18.14;58.50
41222;BME280;26952;42.884;23.918;2022-11-10T10:17:38;96557.91;;;18.29;54.02
41222;BME280;26952;42.884;23.918;2022-11-10T10:20:29;96556.25;;;18.22;51.12
41222;BME280;26952;42.884;23.918;2022-11-10T10:25:40;96540.81;;;18.24;54.01
41222;BME280;26952;42.884;23.918;2022-11-10T10:28:18;96534.69;;;18.43;53.05
41222;BME280;26952;42.884;23.918;2022-11-10T10:30:45;96540.88;;;18.82;51.46
41222;BME280;26952;42.884;23.918;2022-11-10T10:33:14;96525.41;;;19.04;51.66
41222;BME280;26952;42.884;23.918;2022-11-10T10:35:41;96494.06;;;18.85;48.76
41222;BME280;26952;42.884;23.918;2022-11-10T10:38:32;96534.28;;;19.17;49.28
41222;BME280;26952;42.884;23.918;2022-11-10T10:41:08;96528.50;;;18.49;47.56
41222;BME280;26952;42.884;23.918;2022-11-10T10:43:36;96526.03;;;18.67;48.78
41222;BME280;26952;42.884;23.918;2022-11-10T10:46:07;96530.38;;;18.74;46.82
41222;BME280;26952;42.884;23.918;2022-11-10T10:48:33;96532.03;;;18.88;47.09
41222;BME280;26952;42.884;23.918;2022-11-10T10:50:58;96501.88;;;18.93;50.31
41222;BME280;26952;42.884;23.918;2022-11-10T10:53:24;96532.00;;;19.08;46.98
41222;BME280;26952;42.884;23.918;2022-11-10T10:55:59;96526.66;;;19.08;46.42
41222;BME280;26952;42.884;23.918;2022-11-10T11:08:39;96511.75;;;19.18;46.94
41222;BME280;26952;42.884;23.918;2022-11-10T11:11:17;96522.69;;;19.30;48.72
41222;BME280;26952;42.884;23.918;2022-11-10T11:13:42;96511.31;;;19.28;46.37
41222;BME280;26952;42.884;23.918;2022-11-10T11:16:09;96505.13;;;19.34;49.16
41222;BME280;26952;42.884;23.918;2022-11-10T11:18:37;96481.59;;;19.10;46.96
41222;BME280;26952;42.884;23.918;2022-11-10T11:21:25;96518.50;;;19.47;49.11
41222;BME280;26952;42.884;23.918;2022-11-10T11:29:45;96507.00;;;19.84;46.33
41222;BME280;26952;42.884;23.918;2022-11-10T11:38:02;96505.50;;;20.39;46.45
41222;BME280;26952;42.884;23.918;2022-11-10T11:43:10;96485.31;;;19.35;45.44
41222;BME280;26952;42.884;23.918;2022-11-10T11:45:43;96505.91;;;19.48;45.62
41222;BME280;26952;42.884;23.918;2022-11-10T12:09:48;96502.56;;;19.59;43.87
41222;BME280;26952;42.884;23.918;2022-11-10T12:25:33;96510.84;;;20.01;43.72
41222;BME280;26952;42.884;23.918;2022-11-10T12:30:33;96511.03;;;20.06;42.67
41222;BME280;26952;42.884;23.918;2022-11-10T12:35:41;96501.31;;;20.05;43.24
41222;BME280;26952;42.884;23.918;2022-11-10T12:38:13;96516.03;;;20.03;45.17
41222;BME280;26952;42.884;23.918;2022-11-10T12:40:46;96510.25;;;19.99;45.99
41222;BME280;26952;42.884;23.918;2022-11-10T12:43:21;96516.78;;;19.72;47.08
41222;BME280;26952;42.884;23.918;2022-11-10T12:45:58;96516.66;;;19.48;47.88
41222;BME280;26952;42.884;23.918;2022-11-10T12:48:29;96517.97;;;19.32;48.06
41222;BME280;26952;42.884;23.918;2022-11-10T12:51:12;96524.72;;;19.28;49.99
41222;BME280;26952;42.884;23.918;2022-11-10T12:53:42;96493.19;;;19.04;48.70
41222;BME280;26952;42.884;23.918;2022-11-10T12:56:16;96517.34;;;19.10;49.93
41222;BME280;26952;42.884;23.918;2022-11-10T12:58:43;96526.44;;;19.16;50.50
41222;BME280;26952;42.884;23.918;2022-11-10T13:01:17;96533.25;;;18.86;52.35
41222;BME280;26952;42.884;23.918;2022-11-10T13:03:59;96537.72;;;18.27;54.19
41222;BME280;26952;42.884;23.918;2022-11-10T13:06:30;96514.28;;;17.75;56.23
41222;BME280;26952;42.884;23.918;2022-11-10T13:08:57;96508.44;;;17.58;56.43
41222;BME280;26952;42.884;23.918;2022-11-10T13:14:22;96546.22;;;17.42;58.73
41222;BME280;26952;42.884;23.918;2022-11-10T13:16:50;96535.78;;;17.13;60.10
41222;BME280;26952;42.884;23.918;2022-11-10T13:24:27;96557.00;;;16.66;64.03
41222;BME280;26952;42.884;23.918;2022-11-10T13:27:00;96542.72;;;16.38;65.24
41222;BME280;26952;42.884;23.918;2022-11-10T13:34:45;96550.97;;;16.01;67.96
41222;BME280;26952;42.884;23.918;2022-11-10T13:45:30;96570.41;;;15.59;75.00
41222;BME280;26952;42.884;23.918;2022-11-10T13:48:06;96563.41;;;15.44;76.11
41222;BME280;26952;42.884;23.918;2022-11-10T13:58:47;96577.13;;;14.74;80.74
41222;BME280;26952;42.884;23.918;2022-11-10T14:11:37;96567.09;;;13.78;87.32
41222;BME280;26952;42.884;23.918;2022-11-10T14:14:11;96597.88;;;13.80;89.27
41222;BME280;26952;42.884;23.918;2022-11-10T14:16:42;96568.63;;;13.42;91.08
41222;BME280;26952;42.884;23.918;2022-11-10T14:21:48;96604.56;;;13.30;93.82
41222;BME280;26952;42.884;23.918;2022-11-10T14:27:23;96580.38;;;12.93;96.35
41222;BME280;26952;42.884;23.918;2022-11-10T14:30:03;96600.50;;;13.03;95.87
41222;BME280;26952;42.884;23.918;2022-11-10T14:32:28;96589.34;;;13.00;96.02
41222;BME280;26952;42.884;23.918;2022-11-10T14:34:54;96602.47;;;12.93;97.48
41222;BME280;26952;42.884;23.918;2022-11-10T14:37:22;96606.28;;;12.83;98.99
41222;BME280;26952;42.884;23.918;2022-11-10T14:39:57;96617.91;;;12.82;99.67
41222;BME280;26952;42.884;23.918;2022-11-10T14:42:25;96616.59;;;12.70;100.00
41222;BME280;26952;42.884;23.918;2022-11-10T14:47:38;96599.00;;;12.52;100.00
41222;BME280;26952;42.884;23.918;2022-11-10T14:50:06;96622.56;;;12.47;100.00
41222;BME280;26952;42.884;23.918;2022-11-10T14:52:36;96610.09;;;12.24;100.00
41222;BME280;26952;42.884;23.918;2022-11-10T14:55:29;96626.50;;;12.19;100.00
41222;BME280;26952;42.884;23.918;2022-11-10T14:58:39;96635.47;;;12.10;100.00
41222;BME280;26952;42.884;23.918;2022-11-10T15:00:41;96610.88;;;11.92;100.00
41222;BME280;26952;42.884;23.918;2022-11-10T15:03:13;96615.19;;;12.01;100.00
41222;BME280;26952;42.884;23.918;2022-11-10T15:05:40;96640.78;;;12.10;100.00
41222;BME280;26952;42.884;23.918;2022-11-10T15:08:07;96633.25;;;11.90;100.00
41222;BME280;26952;42.884;23.918;2022-11-10T15:13:17;96639.31;;;11.74;100.00